Time;durP1;ratioP1;P1;durP2;ratioP2;P2;SDS_P1;SDS_P2;PMS_P1;PMS_P2;Temp;Humidity;BMP_temperature;BMP_pressure;BME280_temperature;BME280_humidity;BME280_pressure;Samples;Min_cycle;Max_cycle;Signal;HPM_P1;HPM_P2
2022/07/16 00:02:32;;;;;;;7.22;5.20;;;;;;;16.84;61.91;102067.34;4967232;28;20034;-66
2022/07/16 00:04:58;;;;;;;7.53;5.28;;;;;;;16.79;62.17;102063.78;4969344;28;20394;-66
2022/07/16 00:07:23;;;;;;;8.60;5.00;;;;;;;16.75;62.26;102062.81;4968478;28;20117;-66
2022/07/16 00:09:48;;;;;;;7.88;5.15;;;;;;;16.74;62.80;102057.53;4968802;28;20466;-66
2022/07/16 00:12:14;;;;;;;7.03;5.20;;;;;;;16.75;62.95;102067.22;4968444;28;20042;-66
2022/07/16 00:14:39;;;;;;;8.82;5.10;;;;;;;16.72;63.32;102068.03;4967391;28;20105;-66
2022/07/16 00:17:04;;;;;;;8.45;5.53;;;;;;;16.69;63.25;102073.25;4968102;28;20038;-65
2022/07/16 00:19:30;;;;;;;8.75;4.70;;;;;;;16.71;63.55;102071.53;4968728;28;20035;-66
2022/07/16 00:21:56;;;;;;;6.85;4.90;;;;;;;16.70;63.67;102069.78;4967413;28;20561;-66
2022/07/16 00:24:24;;;;;;;7.65;5.35;;;;;;;16.69;63.49;102076.75;4963963;28;20115;-65
2022/07/16 00:26:50;;;;;;;8.52;5.30;;;;;;;16.71;63.40;102089.94;4966772;28;20036;-66
2022/07/16 00:29:18;;;;;;;6.32;5.13;;;;;;;16.70;63.81;102075.03;4962111;28;20035;-66
2022/07/16 00:31:44;;;;;;;8.73;5.20;;;;;;;16.71;64.05;102073.28;4969007;28;20030;-66
2022/07/16 00:34:09;;;;;;;11.55;6.05;;;;;;;16.69;63.68;102073.25;4969849;28;20046;-66
2022/07/16 00:36:36;;;;;;;9.90;6.20;;;;;;;16.69;63.12;102074.13;4967866;28;20475;-66
2022/07/16 00:39:03;;;;;;;7.90;5.65;;;;;;;16.70;63.01;102075.03;4969462;28;20078;-66
2022/07/16 00:41:29;;;;;;;8.60;5.30;;;;;;;16.71;62.05;102070.66;4968822;28;20089;-66
2022/07/16 00:44:01;;;;;;;8.55;5.68;;;;;;;16.74;62.66;102075.97;4968095;28;20399;-66
2022/07/16 00:46:28;;;;;;;8.38;5.40;;;;;;;16.72;63.26;102075.94;4969003;28;20066;-66
2022/07/16 00:48:54;;;;;;;8.75;5.75;;;;;;;16.73;62.50;102075.09;4964290;28;20131;-66
2022/07/16 00:51:22;;;;;;;8.43;5.50;;;;;;;16.74;62.09;102065.44;4968395;28;20058;-66
2022/07/16 00:53:47;;;;;;;8.63;5.43;;;;;;;16.73;63.05;102075.09;4972392;28;20397;-66
2022/07/16 00:56:13;;;;;;;7.93;5.40;;;;;;;16.74;62.35;102065.44;4971827;28;20030;-66
2022/07/16 00:58:41;;;;;;;8.15;5.20;;;;;;;16.73;62.42;102066.28;4972694;28;20026;-66
2022/07/16 01:01:07;;;;;;;9.88;5.22;;;;;;;16.73;62.51;102066.28;4983847;28;20383;-66
2022/07/16 01:03:33;;;;;;;7.13;5.35;;;;;;;16.71;62.78;102068.88;4965066;28;20101;-66
2022/07/16 01:05:59;;;;;;;8.75;5.28;;;;;;;16.73;62.10;102066.28;4972559;28;20550;-66
2022/07/16 01:08:25;;;;;;;7.57;5.32;;;;;;;16.73;62.53;102064.56;4969960;28;20608;-66
2022/07/16 01:10:51;;;;;;;7.82;5.20;;;;;;;16.72;62.96;102068.03;4968384;28;20105;-66
2022/07/16 01:13:17;;;;;;;7.47;5.07;;;;;;;16.73;62.37;102054.03;4971532;28;20034;-66
2022/07/16 01:15:43;;;;;;;6.93;5.22;;;;;;;16.75;61.91;102061.94;4971545;28;20057;-66
2022/07/16 01:18:08;;;;;;;7.53;5.35;;;;;;;16.71;62.28;102055.72;4969260;28;20601;-66
2022/07/16 01:20:33;;;;;;;9.30;5.18;;;;;;;16.72;62.35;102052.25;4967565;28;20061;-66
2022/07/16 01:22:59;;;;;;;8.10;5.05;;;;;;;16.74;62.19;102053.16;4988336;28;20019;-65
2022/07/16 01:25:25;;;;;;;6.82;4.75;;;;;;;16.73;62.75;102050.50;4970083;28;20041;-66
2022/07/16 01:27:51;;;;;;;7.15;5.10;;;;;;;16.73;62.43;102047.84;4973313;28;20034;-66
2022/07/16 01:30:16;;;;;;;7.35;4.90;;;;;;;16.71;62.59;102052.22;4969723;28;20035;-66
2022/07/16 01:32:41;;;;;;;7.20;5.00;;;;;;;16.71;62.23;102050.47;4970133;28;20057;-66
2022/07/16 01:35:07;;;;;;;6.60;4.82;;;;;;;16.73;62.83;102053.13;4971123;28;20042;-66
2022/07/16 01:37:33;;;;;;;8.60;4.97;;;;;;;16.70;62.78;102056.59;4967694;28;20034;-66
2022/07/16 01:39:58;;;;;;;7.40;4.45;;;;;;;16.71;62.62;102058.34;4967504;28;20031;-66
2022/07/16 01:42:24;;;;;;;6.85;4.68;;;;;;;16.72;62.72;102061.91;4971776;28;20015;-66
2022/07/16 01:44:49;;;;;;;6.93;4.90;;;;;;;16.69;63.62;102063.59;4969929;28;20050;-66
2022/07/16 01:47:14;;;;;;;8.05;4.95;;;;;;;16.69;63.17;102062.72;4971880;28;20042;-66
2022/07/16 01:49:40;;;;;;;6.53;5.05;;;;;;;16.66;63.44;102060.03;4971256;28;20069;-66
2022/07/16 01:52:16;;;;;;;7.93;5.70;;;;;;;16.63;63.19;102068.75;4969517;28;20085;-66
2022/07/16 01:54:44;;;;;;;8.30;5.55;;;;;;;16.64;62.34;102061.75;4972223;28;20474;-66
2022/07/16 01:57:10;;;;;;;7.30;4.88;;;;;;;16.64;62.86;102064.38;4970311;28;20045;-66
2022/07/16 01:59:36;;;;;;;8.30;5.40;;;;;;;16.63;62.42;102067.88;4969558;28;20026;-66
2022/07/16 02:02:02;;;;;;;6.38;4.88;;;;;;;16.63;62.49;102066.13;4969897;28;20493;-66
2022/07/16 02:04:27;;;;;;;7.00;5.00;;;;;;;16.61;62.54;102057.34;4969610;28;20022;-66
2022/07/16 02:06:52;;;;;;;7.03;5.20;;;;;;;16.63;62.32;102057.34;4970717;28;20030;-66
2022/07/16 02:09:18;;;;;;;7.22;5.50;;;;;;;16.63;61.84;102052.09;4970290;28;20010;-66
2022/07/16 02:11:43;;;;;;;6.78;5.03;;;;;;;16.61;61.83;102052.06;4965341;28;20109;-66
2022/07/16 02:14:08;;;;;;;7.50;5.15;;;;;;;16.58;62.01;102053.75;4972492;28;20030;-66
2022/07/16 02:16:33;;;;;;;7.32;5.22;;;;;;;16.59;62.58;102051.13;4970124;28;20023;-66
2022/07/16 02:18:59;;;;;;;8.30;5.38;;;;;;;16.62;62.57;102042.41;4971497;28;20030;-66
2022/07/16 02:21:24;;;;;;;9.20;5.10;;;;;;;16.64;62.13;102048.59;4970422;28;20066;-66
2022/07/16 02:23:50;;;;;;;8.32;5.43;;;;;;;16.63;62.36;102052.09;4972301;28;20197;-66
2022/07/16 02:26:15;;;;;;;7.60;5.65;;;;;;;16.62;61.92;102050.31;4968397;28;20125;-66
2022/07/16 02:28:40;;;;;;;8.75;5.22;;;;;;;16.58;61.97;102046.72;4971497;28;20027;-66
2022/07/16 02:31:06;;;;;;;9.65;6.45;;;;;;;16.52;62.32;102046.63;4971031;28;20027;-66
2022/07/16 02:33:31;;;;;;;7.57;5.55;;;;;;;16.55;62.07;102045.78;4970602;28;20034;-66
2022/07/16 02:35:56;;;;;;;7.80;5.50;;;;;;;16.54;62.10;102050.19;4964992;28;20046;-66
2022/07/16 02:38:22;;;;;;;7.47;5.45;;;;;;;16.56;62.27;102044.94;4970473;28;20633;-66
2022/07/16 02:40:47;;;;;;;7.97;5.80;;;;;;;16.54;62.15;102044.91;4969707;28;20588;-66
2022/07/16 02:43:13;;;;;;;8.23;5.70;;;;;;;16.54;62.31;102037.03;4968610;28;20049;-66
2022/07/16 02:45:41;;;;;;;7.63;5.72;;;;;;;16.58;61.56;102038.81;4971589;28;20031;-66
2022/07/16 02:48:07;;;;;;;6.68;5.07;;;;;;;16.61;62.04;102041.53;4969715;28;20027;-66
2022/07/16 02:50:33;;;;;;;7.50;5.13;;;;;;;16.61;62.23;102044.19;4969617;28;20442;-66
2022/07/16 02:52:58;;;;;;;8.95;5.65;;;;;;;16.61;62.02;102038.91;4971547;28;20089;-66
2022/07/16 02:55:24;;;;;;;7.53;5.63;;;;;;;16.63;61.80;102039.81;4964932;28;20596;-66
2022/07/16 02:57:49;;;;;;;8.55;5.85;;;;;;;16.61;62.09;102038.00;4965090;28;20031;-66
2022/07/16 03:00:16;;;;;;;8.05;5.93;;;;;;;16.61;62.85;102040.63;4967568;28;20027;-66
2022/07/16 03:02:42;;;;;;;9.57;6.55;;;;;;;16.59;62.96;102045.00;4967788;28;20052;-66
2022/07/16 03:05:09;;;;;;;10.73;6.55;;;;;;;16.60;62.51;102046.78;4968880;28;20485;-66
2022/07/16 03:07:34;;;;;;;7.50;6.18;;;;;;;16.58;63.28;102041.47;4969950;28;20057;-66
2022/07/16 03:10:00;;;;;;;8.30;6.53;;;;;;;16.58;63.17;102051.13;4967536;28;20105;-66
2022/07/16 03:12:25;;;;;;;8.93;6.18;;;;;;;16.58;62.63;102046.72;4968134;28;20117;-66
2022/07/16 03:14:51;;;;;;;9.30;6.60;;;;;;;16.57;62.28;102051.97;4970799;28;20490;-66
2022/07/16 03:17:16;;;;;;;11.43;6.68;;;;;;;16.55;62.00;102053.69;4969320;28;20393;-66
2022/07/16 03:19:41;;;;;;;9.30;6.20;;;;;;;16.50;62.52;102048.34;4966856;28;20371;-66
2022/07/16 03:22:08;;;;;;;7.72;6.40;;;;;;;16.44;62.53;102053.50;4967848;28;20038;-66
2022/07/16 03:24:33;;;;;;;10.50;6.43;;;;;;;16.46;61.83;102054.41;4965020;28;20410;-66
2022/07/16 03:26:58;;;;;;;9.65;6.70;;;;;;;16.43;62.14;102049.09;4970149;28;20019;-66
2022/07/16 03:29:24;;;;;;;8.40;6.40;;;;;;;16.44;62.26;102050.88;4969100;28;20031;-66
2022/07/16 03:31:49;;;;;;;11.73;6.97;;;;;;;16.40;62.71;102055.19;4969555;28;20061;-66
2022/07/16 03:34:15;;;;;;;10.85;6.85;;;;;;;16.39;62.73;102053.41;4967950;28;20023;-66
2022/07/16 03:36:40;;;;;;;9.43;6.72;;;;;;;16.41;63.21;102063.94;4968315;28;20011;-66
2022/07/16 03:39:06;;;;;;;11.02;6.57;;;;;;;16.42;63.21;102063.09;4968080;28;20038;-66
2022/07/16 03:41:36;;;;;;;9.80;7.22;;;;;;;16.42;62.32;102069.22;4969097;28;20510;-66
2022/07/16 03:44:04;;;;;;;9.82;6.57;;;;;;;16.42;63.14;102076.25;4964483;28;20482;-66
2022/07/16 03:46:29;;;;;;;9.35;6.70;;;;;;;16.41;63.30;102071.84;4968470;28;20130;-66
2022/07/16 03:48:55;;;;;;;10.30;7.22;;;;;;;16.41;63.42;102072.75;4970223;28;20118;-66
2022/07/16 03:51:21;;;;;;;9.60;7.10;;;;;;;16.40;62.85;102076.22;4968274;28;20030;-66
2022/07/16 03:53:46;;;;;;;9.43;7.05;;;;;;;16.41;63.46;102079.72;4985602;28;20478;-66
2022/07/16 03:56:12;;;;;;;8.98;7.28;;;;;;;16.41;63.70;102077.09;4970490;28;20372;-66
2022/07/16 03:58:37;;;;;;;10.70;6.88;;;;;;;16.39;63.71;102082.31;4969515;28;20109;-66
2022/07/16 04:01:03;;;;;;;9.55;7.28;;;;;;;16.40;64.49;102089.38;4982477;28;20150;-66
2022/07/16 04:03:28;;;;;;;9.27;6.65;;;;;;;16.38;65.63;102085.84;4968846;28;20018;-66
2022/07/16 04:05:54;;;;;;;11.85;7.75;;;;;;;16.39;64.57;102084.97;4971636;28;20023;-66
2022/07/16 04:08:19;;;;;;;10.95;7.40;;;;;;;16.37;65.51;102093.69;4970630;28;20486;-66
2022/07/16 04:10:45;;;;;;;8.32;7.03;;;;;;;16.39;65.95;102094.59;4970391;28;20034;-65
2022/07/16 04:13:10;;;;;;;9.73;6.97;;;;;;;16.40;65.61;102096.38;4965320;28;20444;-66
2022/07/16 04:15:35;;;;;;;10.13;6.82;;;;;;;16.38;66.08;102090.19;4967565;28;20030;-66
2022/07/16 04:18:01;;;;;;;9.20;6.68;;;;;;;16.38;66.81;102095.44;4968819;28;20023;-66
2022/07/16 04:20:27;;;;;;;8.93;6.70;;;;;;;16.36;67.32;102091.91;4970983;28;20034;-66
2022/07/16 04:22:52;;;;;;;8.80;6.60;;;;;;;16.38;66.94;102100.72;4969566;28;20057;-66
2022/07/16 04:25:19;;;;;;;8.93;6.40;;;;;;;16.38;67.61;102099.00;4972442;28;20470;-67
2022/07/16 04:27:45;;;;;;;8.55;6.55;;;;;;;16.38;68.84;102103.34;4973540;28;20045;-66
2022/07/16 04:30:11;;;;;;;10.20;6.90;;;;;;;16.35;69.02;102104.16;4971361;28;20402;-66
2022/07/16 04:32:38;;;;;;;9.43;6.28;;;;;;;16.35;68.90;102109.44;4970468;28;20030;-66
2022/07/16 04:35:04;;;;;;;9.27;6.53;;;;;;;16.37;68.30;102106.84;4970986;28;20085;-66
2022/07/16 04:37:29;;;;;;;8.98;6.03;;;;;;;16.38;68.36;102106.88;4970443;28;20037;-66
2022/07/16 04:39:55;;;;;;;8.82;6.80;;;;;;;16.40;69.32;102106.91;4973004;28;20118;-66
2022/07/16 04:42:20;;;;;;;8.90;6.35;;;;;;;16.39;69.17;102111.25;4971076;28;20055;-66
2022/07/16 04:44:45;;;;;;;8.85;6.70;;;;;;;16.40;69.74;102117.44;4972652;28;20117;-66
2022/07/16 04:47:11;;;;;;;9.90;6.82;;;;;;;16.37;70.44;102112.13;4985611;28;20121;-66
2022/07/16 04:49:36;;;;;;;9.30;6.40;;;;;;;16.38;70.44;102116.50;4970323;28;20026;-66
2022/07/16 04:52:02;;;;;;;8.45;6.45;;;;;;;16.37;71.07;102114.75;4968686;28;20106;-66
2022/07/16 04:54:27;;;;;;;11.40;6.60;;;;;;;16.36;71.03;102116.47;4973006;28;20026;-66
2022/07/16 04:56:53;;;;;;;9.65;7.15;;;;;;;16.36;71.37;102115.59;4972741;28;20539;-66
2022/07/16 04:59:18;;;;;;;10.55;6.70;;;;;;;16.37;70.72;102118.25;4972017;28;20067;-66
2022/07/16 05:01:44;;;;;;;9.88;6.45;;;;;;;16.38;71.66;102124.38;4969528;28;20434;-66
2022/07/16 05:04:09;;;;;;;9.02;6.13;;;;;;;16.37;72.94;102126.16;4971494;28;20561;-66
2022/07/16 05:06:34;;;;;;;9.55;5.78;;;;;;;16.38;72.42;102125.31;4970277;28;20037;-66
2022/07/16 05:09:01;;;;;;;10.40;5.70;;;;;;;16.39;73.07;102129.69;4971664;28;20438;-66
2022/07/16 05:11:27;;;;;;;9.13;5.50;;;;;;;16.39;73.24;102129.69;4971005;28;20117;-66
2022/07/16 05:13:53;;;;;;;9.65;5.50;;;;;;;16.41;73.40;102124.44;4972275;28;20030;-66
2022/07/16 05:16:19;;;;;;;7.47;5.40;;;;;;;16.42;73.57;102127.09;4965070;28;20042;-66
2022/07/16 05:18:45;;;;;;;7.22;5.28;;;;;;;16.44;73.79;102133.31;4969583;28;20031;-66
2022/07/16 05:21:10;;;;;;;8.52;5.07;;;;;;;16.48;73.56;102136.88;4972746;28;20379;-66
2022/07/16 05:23:36;;;;;;;9.65;5.65;;;;;;;16.50;75.13;102140.44;4973546;28;20242;-66
2022/07/16 05:26:01;;;;;;;8.00;5.30;;;;;;;16.51;73.87;102148.34;4970537;28;20518;-66
2022/07/16 05:28:26;;;;;;;8.27;5.18;;;;;;;16.55;75.60;102148.41;4970222;28;20026;-65
2022/07/16 05:30:52;;;;;;;8.32;4.88;;;;;;;16.56;75.05;102151.06;4969221;28;20035;-65
2022/07/16 05:33:17;;;;;;;8.82;5.50;;;;;;;16.58;75.26;102154.59;4971245;28;20034;-65
2022/07/16 05:35:43;;;;;;;7.72;5.00;;;;;;;16.61;75.52;102148.53;4971355;28;20033;-65
2022/07/16 05:38:08;;;;;;;9.98;5.53;;;;;;;16.64;76.13;102151.22;4971359;28;20038;-65
2022/07/16 05:40:33;;;;;;;8.57;5.00;;;;;;;16.65;76.85;102147.72;4970921;28;20047;-65
2022/07/16 05:42:59;;;;;;;9.40;5.03;;;;;;;16.68;77.14;102159.22;4968897;28;20421;-65
2022/07/16 05:45:24;;;;;;;8.07;4.60;;;;;;;16.71;76.71;102158.38;4973618;28;20026;-65
2022/07/16 05:47:49;;;;;;;6.85;4.70;;;;;;;16.74;76.54;102158.44;4971016;28;20058;-65
2022/07/16 05:50:15;;;;;;;7.60;4.50;;;;;;;16.76;77.50;102151.47;4967669;28;20506;-66
2022/07/16 05:52:40;;;;;;;7.20;4.47;;;;;;;16.80;75.59;102155.03;4967243;28;20121;-66
2022/07/16 05:55:06;;;;;;;7.72;4.22;;;;;;;16.84;76.54;102162.13;4970705;28;20433;-66
2022/07/16 05:57:31;;;;;;;6.40;3.38;;;;;;;16.85;77.82;102167.41;4971087;28;20031;-66
2022/07/16 05:59:57;;;;;;;7.10;3.25;;;;;;;16.90;75.09;102159.66;4970432;28;20597;-65
2022/07/16 06:02:22;;;;;;;6.35;3.22;;;;;;;16.94;76.11;102152.69;4968508;28;20077;-66
2022/07/16 06:04:47;;;;;;;5.38;3.20;;;;;;;16.97;75.80;102158.00;4967721;28;20062;-66
2022/07/16 06:07:13;;;;;;;5.53;3.17;;;;;;;17.02;76.23;102167.78;4971431;28;20127;-66
2022/07/16 06:09:38;;;;;;;6.78;3.10;;;;;;;17.06;75.71;102168.72;4972145;28;20045;-66
2022/07/16 06:12:04;;;;;;;6.15;2.90;;;;;;;17.13;76.42;102175.88;4968136;28;20092;-66
2022/07/16 06:14:29;;;;;;;7.68;3.20;;;;;;;17.17;75.78;102188.22;4986613;28;20089;-66
2022/07/16 06:16:55;;;;;;;7.65;3.20;;;;;;;17.24;75.74;102183.09;4968382;28;20038;-66
2022/07/16 06:19:20;;;;;;;5.35;2.63;;;;;;;17.27;74.78;102188.41;4971147;28;20042;-66
2022/07/16 06:21:45;;;;;;;7.53;3.10;;;;;;;17.33;75.24;102191.13;4969247;28;20022;-66
2022/07/16 06:24:11;;;;;;;6.22;3.38;;;;;;;17.40;74.85;102195.66;4971265;28;20081;-66
2022/07/16 06:26:36;;;;;;;5.18;2.95;;;;;;;17.44;75.19;102202.75;4970549;28;20061;-66
2022/07/16 06:29:02;;;;;;;6.90;3.00;;;;;;;17.49;74.52;102201.06;4970838;28;20034;-66
2022/07/16 06:31:27;;;;;;;6.85;3.00;;;;;;;17.52;75.03;102202.88;4968886;28;20398;-66
2022/07/16 06:33:52;;;;;;;6.28;2.80;;;;;;;17.58;74.91;102210.00;4966308;28;20279;-66
2022/07/16 06:36:18;;;;;;;6.50;3.17;;;;;;;17.62;74.33;102211.81;4970244;28;20039;-66
2022/07/16 06:38:43;;;;;;;8.23;3.05;;;;;;;17.66;74.32;102206.63;4965863;28;20027;-66
2022/07/16 06:41:08;;;;;;;6.68;2.80;;;;;;;17.71;74.46;102215.50;4969407;28;20101;-66
2022/07/16 06:43:33;;;;;;;6.50;3.00;;;;;;;17.75;72.76;102212.91;4964589;28;20054;-66
2022/07/16 06:45:59;;;;;;;6.75;2.60;;;;;;;17.75;73.09;102218.19;4969195;28;20035;-66
2022/07/16 06:48:25;;;;;;;5.47;2.20;;;;;;;17.77;71.59;102217.34;4968490;28;20027;-66
2022/07/16 06:50:50;;;;;;;7.32;2.53;;;;;;;17.80;71.63;102224.41;4970723;28;20066;-66
2022/07/16 06:53:15;;;;;;;10.00;5.68;;;;;;;17.81;71.24;102223.56;4969126;28;20023;-66
2022/07/16 06:55:40;;;;;;;6.78;2.40;;;;;;;17.84;69.73;102218.31;4968187;28;20109;-66
2022/07/16 06:58:06;;;;;;;6.05;2.10;;;;;;;17.88;70.55;102225.41;4964499;28;20038;-68
2022/07/16 07:00:31;;;;;;;6.35;2.30;;;;;;;17.89;70.54;102224.56;4965471;28;20035;-66
2022/07/16 07:02:56;;;;;;;4.40;2.15;;;;;;;17.93;70.50;102233.44;4968558;28;20019;-66
2022/07/16 07:05:22;;;;;;;6.07;2.33;;;;;;;17.96;69.55;102242.28;4971299;28;20433;-66
2022/07/16 07:07:47;;;;;;;5.80;1.83;;;;;;;18.00;68.86;102240.56;4968988;28;20045;-66
2022/07/16 07:10:13;;;;;;;4.63;2.05;;;;;;;18.01;69.51;102242.34;4964716;28;20118;-66
2022/07/16 07:12:38;;;;;;;4.00;1.98;;;;;;;18.03;68.97;102248.53;4971559;28;20552;-68
2022/07/16 07:15:05;;;;;;;4.40;1.92;;;;;;;18.05;68.34;102255.59;4970647;28;20496;-66
2022/07/16 07:17:30;;;;;;;4.38;1.90;;;;;;;18.11;68.55;102259.22;4967497;28;20445;-66
2022/07/16 07:19:55;;;;;;;3.88;1.73;;;;;;;18.11;67.56;102259.22;4969368;28;20494;-66
2022/07/16 07:22:21;;;;;;;5.93;1.95;;;;;;;18.15;67.42;102259.28;4969765;28;20022;-66
2022/07/16 07:24:46;;;;;;;4.97;1.75;;;;;;;18.18;66.83;102261.09;4970342;28;20043;-66
2022/07/16 07:27:11;;;;;;;3.90;1.92;;;;;;;18.21;67.50;102266.41;4971777;28;20039;-66
2022/07/16 07:29:37;;;;;;;4.90;1.75;;;;;;;18.23;66.24;102262.03;4969175;28;20066;-66
2022/07/16 07:32:03;;;;;;;6.95;2.00;;;;;;;18.27;66.28;102255.06;4970826;28;20031;-66
2022/07/16 07:34:28;;;;;;;5.50;1.70;;;;;;;18.30;68.54;102265.66;4969565;28;20034;-66
2022/07/16 07:36:55;;;;;;;4.40;1.90;;;;;;;18.33;66.13;102260.41;4969477;28;20031;-66
2022/07/16 07:39:20;;;;;;;4.20;2.15;;;;;;;18.37;66.35;102263.09;4969249;28;20026;-66
2022/07/16 07:41:45;;;;;;;4.00;2.00;;;;;;;18.44;65.81;102264.09;4965972;28;20042;-66
2022/07/16 07:44:11;;;;;;;20.20;3.05;;;;;;;18.46;65.21;102272.03;4964427;28;20057;-66
2022/07/16 07:46:36;;;;;;;15.45;3.17;;;;;;;18.46;65.01;102272.91;4965427;28;20026;-65
2022/07/16 07:49:02;;;;;;;6.97;2.15;;;;;;;18.50;65.40;102280.00;4966217;28;20030;-65
2022/07/16 07:51:27;;;;;;;4.68;1.80;;;;;;;18.58;66.24;102277.47;4967016;28;20030;-65
2022/07/16 07:53:53;;;;;;;5.65;2.00;;;;;;;18.60;63.83;102278.38;4964462;28;20486;-66
2022/07/16 07:56:18;;;;;;;5.00;1.83;;;;;;;18.63;64.79;102277.53;4961888;28;20122;-65
2022/07/16 07:58:43;;;;;;;5.35;1.90;;;;;;;18.67;63.34;102276.69;4961230;28;20146;-66
2022/07/16 08:01:09;;;;;;;10.30;2.53;;;;;;;18.72;63.83;102280.28;4964191;28;20505;-66
2022/07/16 08:03:34;;;;;;;4.80;1.98;;;;;;;18.79;64.73;102281.25;4964086;28;20022;-66
2022/07/16 08:06:00;;;;;;;4.18;2.00;;;;;;;18.83;64.09;102283.97;4967018;28;20041;-66
2022/07/16 08:08:25;;;;;;;6.03;1.95;;;;;;;18.87;64.10;102285.81;4965940;28;20093;-67
2022/07/16 08:10:50;;;;;;;3.88;1.77;;;;;;;18.87;62.02;102291.09;4966458;28;20035;-66
2022/07/16 08:13:17;;;;;;;5.35;2.00;;;;;;;18.86;61.47;102294.59;4966377;28;20126;-66
2022/07/16 08:15:42;;;;;;;5.53;2.10;;;;;;;18.90;62.56;102299.03;4969169;28;20049;-66
2022/07/16 08:18:09;;;;;;;4.38;1.90;;;;;;;18.96;61.84;102286.75;4967923;28;20478;-66
2022/07/16 08:20:34;;;;;;;4.25;1.90;;;;;;;19.02;64.10;102300.94;4966665;28;20031;-66
2022/07/16 08:22:59;;;;;;;4.40;1.83;;;;;;;19.10;63.69;102298.38;4969643;28;20023;-66
2022/07/16 08:28:08;;;;;;;5.80;2.00;;;;;;;19.29;63.92;102303.03;4970165;28;20045;-65
2022/07/16 08:30:33;;;;;;;4.45;2.00;;;;;;;19.37;64.06;102308.38;4966193;28;20026;-65
2022/07/16 08:32:59;;;;;;;5.70;1.90;;;;;;;19.42;62.56;102314.59;4968411;28;20027;-66
2022/07/16 08:35:24;;;;;;;5.05;2.00;;;;;;;19.49;60.59;102307.59;4963374;28;20048;-67
2022/07/16 08:37:50;;;;;;;4.57;1.88;;;;;;;19.58;61.62;102312.09;4967270;28;20553;-65
2022/07/16 08:40:19;;;;;;;5.90;2.08;;;;;;;19.69;62.93;102317.50;4965397;28;20481;-66
2022/07/16 08:42:45;;;;;;;6.63;2.55;;;;;;;19.73;60.27;102322.84;4981040;28;20389;-66
2022/07/16 08:45:12;;;;;;;3.88;1.92;;;;;;;19.89;62.61;102326.53;4970954;28;20505;-67
2022/07/16 08:47:38;;;;;;;3.85;1.75;;;;;;;19.99;61.49;102335.44;4964473;28;20042;-66
2022/07/16 08:50:12;;;;;;;5.53;2.00;;;;;;;20.02;59.59;102329.31;4960538;28;20018;-66
2022/07/16 08:52:40;;;;;;;6.45;1.92;;;;;;;20.01;58.86;102341.63;4970215;28;20035;-67
2022/07/16 08:55:07;;;;;;;4.68;2.13;;;;;;;20.06;60.35;102336.34;4967351;28;20062;-66
2022/07/16 08:57:34;;;;;;;5.75;1.90;;;;;;;20.12;59.65;102342.59;4961438;28;20176;-66
2022/07/16 08:59:59;;;;;;;4.32;1.80;;;;;;;20.16;58.35;102338.22;4961762;28;20027;-66
2022/07/16 09:02:25;;;;;;;5.20;1.92;;;;;;;20.25;58.83;102346.22;4969050;28;20027;-66
2022/07/16 09:04:50;;;;;;;7.00;2.58;;;;;;;20.35;59.70;102346.28;4966707;28;20106;-66
2022/07/16 09:07:17;;;;;;;5.57;1.95;;;;;;;20.41;58.49;102343.69;4966642;28;20121;-66
2022/07/16 09:09:44;;;;;;;6.03;1.90;;;;;;;20.53;58.47;102348.19;4969486;28;20401;-66
2022/07/16 09:12:10;;;;;;;4.70;1.80;;;;;;;20.63;57.80;102350.88;4970680;28;20053;-66
2022/07/16 09:14:36;;;;;;;4.88;2.00;;;;;;;20.63;54.40;102348.25;4965719;28;20034;-66
2022/07/16 09:17:01;;;;;;;4.47;2.00;;;;;;;20.72;56.13;102341.25;4966625;28;20026;-66
2022/07/16 09:19:29;;;;;;;4.40;1.85;;;;;;;20.79;55.93;102351.88;4964040;28;20065;-66
2022/07/16 09:22:15;;;;;;;4.78;1.58;;;;;;;20.93;57.42;102349.31;4969796;28;20038;-66
2022/07/16 09:24:47;;;;;;;3.50;1.60;;;;;;;21.02;55.96;102352.00;4977466;28;20029;-66
2022/07/16 09:27:17;;;;;;;4.68;1.83;;;;;;;21.06;56.03;102355.56;4964855;28;20042;-66
2022/07/16 09:29:58;;;;;;;5.15;1.60;;;;;;;21.10;53.58;102361.75;4964351;28;20387;-66
2022/07/16 09:32:36;;;;;;;5.57;1.80;;;;;;;21.18;56.11;102358.25;4965224;28;20085;-67
2022/07/16 09:35:13;;;;;;;5.03;2.05;;;;;;;21.27;55.58;102348.56;4969382;28;20409;-66
2022/07/16 09:37:51;;;;;;;3.90;1.60;;;;;;;21.32;55.91;102368.91;4964221;28;20150;-66
2022/07/16 09:40:46;;;;;;;3.80;1.70;;;;;;;21.34;55.25;102360.97;4967842;28;20070;-66
2022/07/16 09:43:12;;;;;;;3.90;1.58;;;;;;;21.35;54.33;102357.44;4969914;28;20105;-65
2022/07/16 09:45:41;;;;;;;5.18;1.75;;;;;;;21.42;54.82;102369.84;4963415;28;20101;-66
2022/07/16 09:48:27;;;;;;;;;;;;;;;21.52;57.31;102361.03;4964488;28;20034;-66
2022/07/16 09:50:54;;;;;;;4.85;1.88;;;;;;;21.60;53.78;102368.13;4966896;28;19941;-66
2022/07/16 09:53:22;;;;;;;4.15;1.60;;;;;;;21.60;51.37;102365.47;4971910;28;20504;-67
2022/07/16 09:55:55;;;;;;;6.85;2.83;;;;;;;21.73;54.57;102369.03;4972572;28;20055;-66
2022/07/16 09:58:20;;;;;;;5.40;2.10;;;;;;;21.82;54.28;102377.88;4970407;28;20564;-66
2022/07/16 10:00:45;;;;;;;5.05;1.70;;;;;;;21.85;49.71;102374.34;4972808;28;20026;-67
2022/07/16 10:03:11;;;;;;;4.35;1.90;;;;;;;21.89;51.28;102392.94;4972638;28;20593;-67
2022/07/16 10:05:36;;;;;;;4.82;1.50;;;;;;;21.91;51.44;102387.63;4970986;28;20074;-66
2022/07/16 10:08:02;;;;;;;3.78;1.58;;;;;;;21.95;50.92;102392.06;4973023;28;20521;-66
2022/07/16 10:10:27;;;;;;;3.72;1.45;;;;;;;21.98;49.34;102385.88;4973381;28;20034;-66
2022/07/16 10:12:53;;;;;;;5.80;1.48;;;;;;;22.06;50.33;102400.91;4972052;28;20077;-66
2022/07/16 10:15:20;;;;;;;4.60;1.52;;;;;;;22.02;47.33;102392.94;4969541;28;20458;-66
2022/07/16 10:17:46;;;;;;;5.18;1.60;;;;;;;22.06;48.57;102395.59;4973000;28;20035;-66
2022/07/16 10:20:17;;;;;;;3.53;1.40;;;;;;;22.11;50.16;102403.56;4968090;28;20034;-65
2022/07/16 10:22:45;;;;;;;3.50;1.48;;;;;;;22.19;47.77;102395.63;4971593;28;20610;-67
2022/07/16 10:25:22;;;;;;;8.10;1.67;;;;;;;22.26;49.97;102401.78;4972532;28;20058;-66
2022/07/16 10:27:48;;;;;;;3.75;1.35;;;;;;;22.36;48.89;102408.91;4971757;28;20030;-67
2022/07/16 10:30:22;;;;;;;11.95;1.92;;;;;;;22.43;49.21;102408.00;4971033;28;20097;-66
2022/07/16 10:33:00;;;;;;;6.97;1.35;;;;;;;22.58;49.98;102408.00;4971707;28;20038;-66
2022/07/16 10:35:45;;;;;;;5.10;1.60;;;;;;;22.62;47.29;102408.88;4972061;28;20497;-66
2022/07/16 10:38:16;;;;;;;4.25;1.40;;;;;;;22.68;48.26;102406.22;4972778;28;20026;-66
2022/07/16 10:40:43;;;;;;;5.47;1.65;;;;;;;22.75;47.35;102412.41;4971553;28;20058;-66
2022/07/16 10:43:18;;;;;;;5.07;1.48;;;;;;;22.82;47.99;102407.97;4972539;28;20113;-66
2022/07/16 10:45:52;;;;;;;4.78;1.63;;;;;;;22.90;49.44;102403.53;4970325;28;20101;-66
2022/07/16 10:48:18;;;;;;;3.70;1.50;;;;;;;22.98;49.30;102415.00;4968605;28;20035;-66
2022/07/16 10:51:23;;;;;;;4.32;1.60;;;;;;;23.07;48.12;102409.66;4970957;28;20541;-66
2022/07/16 10:53:57;;;;;;;3.50;1.55;;;;;;;23.12;48.58;102415.00;4950233;29;20039;-66
2022/07/16 10:56:35;;;;;;;4.53;2.25;;;;;;;23.21;48.70;102412.28;4950289;29;20090;-67
2022/07/16 10:59:09;;;;;;;3.75;1.50;;;;;;;23.17;46.13;102414.97;4963624;28;20055;-67
2022/07/16 11:01:36;;;;;;;3.05;1.40;;;;;;;23.10;45.06;102422.03;4970105;28;20061;-67
2022/07/16 11:04:03;;;;;;;3.40;1.50;;;;;;;23.03;46.08;102421.19;4972218;28;20029;-67
2022/07/16 11:06:29;;;;;;;3.58;1.40;;;;;;;22.92;45.09;102428.31;4987287;28;20042;-66
2022/07/16 11:08:59;;;;;;;4.88;1.70;;;;;;;22.93;45.88;102432.75;4971843;28;20035;-67
2022/07/16 11:11:38;;;;;;;6.57;1.83;;;;;;;22.88;45.86;102422.13;4971400;28;20019;-67
2022/07/16 11:14:04;;;;;;;4.57;1.70;;;;;;;22.92;49.44;102423.00;4971933;28;20137;-66
2022/07/16 11:16:30;;;;;;;3.72;1.40;;;;;;;22.99;48.13;102422.09;4967972;28;20775;-66
2022/07/16 11:18:58;;;;;;;4.72;1.90;;;;;;;23.08;47.75;102427.38;4971185;28;20553;-66
2022/07/16 11:21:24;;;;;;;4.25;1.70;;;;;;;23.19;46.38;102426.50;4971931;28;20019;-66
2022/07/16 11:24:00;;;;;;;5.13;1.60;;;;;;;23.20;45.51;102422.94;4972461;28;20022;-67
2022/07/16 11:26:28;;;;;;;4.55;1.60;;;;;;;23.15;46.20;102427.41;4971821;28;20355;-61